createdAt,value
2022-12-15T00:00:45.737Z,12.35
2022-12-15T00:03:32.112Z,9.00
2022-12-15T00:06:19.425Z,9.93
2022-12-15T00:09:07.533Z,9.57
2022-12-15T00:11:57.307Z,7.35
2022-12-15T00:14:43.081Z,9.30
2022-12-15T00:17:30.604Z,8.18
2022-12-15T00:20:16.715Z,8.32
2022-12-15T00:23:02.926Z,9.82
2022-12-15T00:25:49.068Z,9.63
2022-12-15T00:28:35.231Z,7.90
2022-12-15T00:31:21.760Z,8.80
2022-12-15T00:34:09.667Z,8.27
2022-12-15T00:36:55.136Z,8.95
2022-12-15T00:39:23.950Z,9.50
2022-12-15T00:41:52.371Z,9.07
2022-12-15T00:44:21.420Z,8.32
2022-12-15T00:46:57.576Z,7.38
2022-12-15T00:49:47.262Z,8.90
2022-12-15T00:52:34.889Z,8.00
2022-12-15T00:55:21.028Z,7.75
2022-12-15T00:58:07.269Z,8.02
2022-12-15T01:00:53.581Z,8.38
2022-12-15T01:03:42.418Z,6.70
2022-12-15T01:06:31.889Z,7.55
2022-12-15T01:09:18.072Z,7.47
2022-12-15T01:12:04.406Z,7.38
2022-12-15T01:14:51.778Z,8.77
2022-12-15T01:17:37.944Z,8.00
2022-12-15T01:20:33.108Z,9.35
2022-12-15T01:23:04.422Z,8.60
2022-12-15T01:25:33.312Z,8.30
2022-12-15T01:28:02.214Z,8.15
2022-12-15T01:30:30.911Z,8.40
2022-12-15T01:32:59.805Z,8.93
2022-12-15T01:35:29.317Z,7.82
2022-12-15T01:37:57.754Z,8.85
2022-12-15T01:40:44.708Z,7.97
2022-12-15T01:43:15.328Z,9.30
2022-12-15T01:45:58.010Z,8.80
2022-12-15T01:48:35.831Z,13.00
2022-12-15T01:51:12.494Z,12.02
2022-12-15T01:53:45.676Z,13.20
2022-12-15T01:56:21.389Z,13.88
2022-12-15T01:58:52.764Z,13.77
2022-12-15T02:01:21.776Z,9.18
2022-12-15T02:03:50.611Z,8.93
2022-12-15T02:06:23.157Z,8.30
2022-12-15T02:08:53.874Z,7.57
2022-12-15T02:11:51.547Z,8.40
2022-12-15T02:14:29.722Z,7.82
2022-12-15T02:17:13.913Z,7.38
2022-12-15T02:20:21.080Z,7.53
2022-12-15T02:23:12.387Z,7.55
2022-12-15T02:26:07.198Z,7.93
2022-12-15T02:28:50.290Z,8.00
2022-12-15T02:31:41.975Z,7.28
2022-12-15T02:34:17.198Z,7.50
2022-12-15T02:36:48.983Z,8.02
2022-12-15T02:39:19.985Z,7.28
2022-12-15T02:41:49.337Z,8.73
2022-12-15T02:44:22.704Z,7.50
2022-12-15T02:47:13.370Z,8.88
2022-12-15T02:49:55.284Z,8.25
2022-12-15T02:52:36.990Z,7.25
2022-12-15T02:55:16.694Z,7.72
2022-12-15T02:57:54.766Z,8.40
2022-12-15T03:00:24.167Z,7.85
2022-12-15T03:02:57.125Z,7.97
2022-12-15T03:05:27.497Z,8.85
2022-12-15T03:07:56.126Z,8.18
2022-12-15T03:10:27.826Z,8.93
2022-12-15T03:12:56.358Z,7.07
2022-12-15T03:15:24.770Z,7.82
2022-12-15T03:17:54.837Z,7.75
2022-12-15T03:20:23.424Z,7.88
2022-12-15T03:22:52.077Z,7.15
2022-12-15T03:25:20.814Z,5.95
2022-12-15T03:27:49.955Z,7.40
2022-12-15T03:30:18.643Z,7.20
2022-12-15T03:32:47.004Z,7.75
2022-12-15T03:35:16.994Z,7.47
2022-12-15T03:37:45.448Z,7.05
2022-12-15T03:40:15.228Z,7.38
2022-12-15T03:42:53.204Z,7.78
2022-12-15T03:45:23.615Z,7.65
2022-12-15T03:47:53.173Z,7.32
2022-12-15T03:50:25.798Z,6.78
2022-12-15T03:52:56.061Z,7.93
2022-12-15T03:55:25.090Z,7.13
2022-12-15T03:57:54.294Z,7.53
2022-12-15T04:00:24.771Z,7.22
2022-12-15T04:02:54.068Z,7.35
2022-12-15T04:05:27.089Z,7.10
2022-12-15T04:07:56.228Z,7.55
2022-12-15T04:10:31.921Z,7.40
2022-12-15T04:13:08.242Z,6.78
2022-12-15T04:15:37.587Z,6.63
2022-12-15T04:18:09.530Z,6.55
2022-12-15T04:20:40.362Z,6.72
2022-12-15T04:23:09.457Z,7.28
2022-12-15T04:25:56.719Z,6.32
2022-12-15T04:28:43.829Z,6.18
2022-12-15T04:31:32.029Z,5.68
2022-12-15T04:34:21.365Z,5.70
2022-12-15T04:37:11.781Z,5.82
2022-12-15T04:40:01.916Z,5.35
2022-12-15T04:42:49.940Z,4.68
2022-12-15T04:45:37.557Z,6.28
2022-12-15T04:48:24.417Z,6.10
2022-12-15T04:51:10.073Z,5.13
2022-12-15T04:53:57.482Z,5.97
2022-12-15T04:56:43.640Z,5.50
2022-12-15T04:59:29.428Z,5.22
2022-12-15T05:02:15.787Z,6.05
2022-12-15T05:05:01.910Z,4.68
2022-12-15T05:07:47.607Z,5.68
2022-12-15T05:10:35.046Z,5.20
2022-12-15T05:13:25.319Z,5.13
2022-12-15T05:16:11.812Z,5.80
2022-12-15T05:18:57.630Z,5.45
2022-12-15T05:21:43.410Z,5.00
2022-12-15T05:24:29.024Z,5.30
2022-12-15T05:27:16.410Z,4.78
2022-12-15T05:30:02.139Z,4.68
2022-12-15T05:32:33.599Z,5.10
2022-12-15T05:35:02.674Z,5.47
2022-12-15T05:37:31.085Z,5.40
2022-12-15T05:39:59.420Z,5.38
2022-12-15T05:42:29.308Z,5.65
2022-12-15T05:44:58.010Z,4.35
2022-12-15T05:47:26.761Z,5.00
2022-12-15T05:49:55.583Z,5.28
2022-12-15T05:52:24.245Z,4.80
2022-12-15T05:54:52.572Z,5.35
2022-12-15T05:57:21.002Z,5.38
2022-12-15T05:59:50.809Z,4.80
2022-12-15T06:02:20.554Z,4.60
2022-12-15T06:04:49.281Z,4.53
2022-12-15T06:07:17.887Z,4.75
2022-12-15T06:09:46.815Z,4.90
2022-12-15T06:12:15.346Z,5.55
2022-12-15T06:14:43.949Z,5.03
2022-12-15T06:17:13.900Z,4.30
2022-12-15T06:19:42.651Z,5.53
2022-12-15T06:22:11.237Z,4.00
2022-12-15T06:24:39.805Z,4.30
2022-12-15T06:27:09.554Z,4.75
2022-12-15T06:29:37.986Z,5.05
2022-12-15T06:32:06.604Z,5.35
2022-12-15T06:34:37.716Z,5.10
2022-12-15T06:37:06.227Z,5.18
2022-12-15T06:39:34.684Z,5.47
2022-12-15T06:42:02.990Z,5.60
2022-12-15T06:44:31.485Z,5.50
2022-12-15T06:47:00.263Z,4.75
2022-12-15T06:49:29.174Z,4.38
2022-12-15T06:51:59.091Z,5.05
2022-12-15T06:54:28.511Z,5.20
2022-12-15T06:56:57.010Z,5.00
2022-12-15T06:59:25.380Z,4.40
2022-12-15T07:01:54.171Z,5.13
2022-12-15T07:04:22.744Z,4.95
2022-12-15T07:06:51.338Z,4.60
2022-12-15T07:09:21.732Z,5.32
2022-12-15T07:11:51.518Z,5.00
2022-12-15T07:14:20.241Z,5.82
2022-12-15T07:16:48.559Z,5.05
2022-12-15T07:19:17.009Z,5.00
2022-12-15T07:21:46.722Z,5.47
2022-12-15T07:24:16.510Z,5.97
2022-12-15T07:26:49.757Z,6.07
2022-12-15T07:29:23.411Z,6.40
2022-12-15T07:31:52.932Z,5.90
2022-12-15T07:34:21.631Z,5.47
2022-12-15T07:36:52.612Z,6.22
2022-12-15T07:39:24.825Z,5.18
2022-12-15T07:41:54.790Z,5.22
2022-12-15T07:44:32.095Z,5.35
2022-12-15T07:47:01.782Z,5.68
2022-12-15T07:49:30.784Z,5.32
2022-12-15T07:51:59.372Z,5.40
2022-12-15T07:54:29.448Z,5.20
2022-12-15T07:57:00.155Z,5.15
2022-12-15T07:59:31.051Z,5.25
2022-12-15T08:02:17.995Z,5.30
2022-12-15T08:04:46.467Z,5.22
2022-12-15T08:07:18.242Z,5.10
2022-12-15T08:09:48.590Z,4.90
2022-12-15T08:12:19.466Z,5.43
2022-12-15T08:14:56.383Z,4.72
2022-12-15T08:17:25.244Z,4.85
2022-12-15T08:19:58.722Z,4.90
2022-12-15T08:22:27.394Z,5.00
2022-12-15T08:24:56.994Z,5.03
2022-12-15T08:27:33.441Z,4.65
2022-12-15T08:30:11.646Z,4.57
2022-12-15T08:32:46.062Z,5.00
2022-12-15T08:35:54.457Z,4.90
2022-12-15T08:38:09.274Z,4.97
2022-12-15T08:40:37.548Z,5.40
2022-12-15T08:43:08.187Z,4.57
2022-12-15T08:45:36.653Z,4.45
2022-12-15T08:48:16.645Z,5.38
2022-12-15T08:50:46.698Z,4.43
2022-12-15T08:53:30.798Z,5.07
2022-12-15T08:56:15.896Z,5.15
2022-12-15T08:58:46.415Z,5.32
2022-12-15T09:01:22.428Z,4.15
2022-12-15T09:04:12.596Z,4.70
2022-12-15T09:06:50.741Z,5.93
2022-12-15T09:09:22.735Z,5.78
2022-12-15T09:11:56.065Z,7.15
2022-12-15T09:14:29.689Z,7.35
2022-12-15T09:16:58.584Z,7.80
2022-12-15T09:19:28.292Z,6.75
2022-12-15T09:22:02.682Z,8.68
2022-12-15T09:24:35.056Z,7.07
2022-12-15T09:27:05.086Z,5.18
2022-12-15T09:29:35.237Z,4.85
2022-12-15T09:32:08.976Z,6.07
2022-12-15T09:34:41.059Z,6.20
2022-12-15T09:37:09.628Z,6.78
2022-12-15T09:39:39.307Z,5.68
2022-12-15T09:42:07.965Z,5.68
2022-12-15T09:44:39.523Z,4.93
2022-12-15T09:47:18.953Z,6.15
2022-12-15T09:49:57.782Z,5.53
2022-12-15T09:52:30.439Z,5.30
2022-12-15T09:55:02.019Z,6.35
2022-12-15T09:57:40.063Z,5.75
2022-12-15T10:00:21.738Z,6.75
2022-12-15T10:03:19.354Z,6.75
2022-12-15T10:06:20.037Z,7.97
2022-12-15T10:08:56.394Z,8.85
2022-12-15T10:11:38.291Z,7.35
2022-12-15T10:14:18.601Z,8.90
2022-12-15T10:16:57.229Z,6.93
2022-12-15T10:19:35.446Z,6.60
2022-12-15T10:22:04.304Z,6.00
2022-12-15T10:25:08.557Z,6.28
2022-12-15T10:27:55.042Z,5.40
2022-12-15T10:30:23.851Z,6.40
2022-12-15T10:33:02.697Z,4.97
2022-12-15T10:35:33.907Z,5.85
2022-12-15T10:38:05.551Z,6.40
2022-12-15T10:40:50.459Z,6.10
2022-12-15T10:43:29.115Z,6.53
2022-12-15T10:46:12.179Z,6.72
2022-12-15T10:48:42.832Z,5.72
2022-12-15T10:51:20.627Z,5.60
2022-12-15T10:53:54.637Z,5.88
2022-12-15T10:56:32.738Z,5.70
2022-12-15T10:59:05.074Z,5.50
2022-12-15T11:01:35.984Z,5.38
2022-12-15T11:04:08.250Z,5.18
2022-12-15T11:06:39.424Z,5.28
2022-12-15T11:09:30.054Z,5.38
2022-12-15T11:12:15.936Z,5.07
2022-12-15T11:14:47.672Z,5.00
2022-12-15T11:17:19.368Z,5.70
2022-12-15T11:20:01.902Z,5.90
2022-12-15T11:22:41.299Z,5.07
2022-12-15T11:25:21.896Z,5.53
2022-12-15T11:27:53.414Z,6.22
2022-12-15T11:30:26.309Z,5.10
2022-12-15T11:32:59.492Z,5.18
2022-12-15T11:35:42.627Z,5.30
2022-12-15T11:38:21.224Z,5.80
2022-12-15T11:40:51.975Z,5.65
2022-12-15T11:43:45.649Z,6.28
2022-12-15T11:46:24.254Z,6.10
2022-12-15T11:49:16.730Z,6.82
2022-12-15T11:51:54.564Z,5.55
2022-12-15T11:54:31.302Z,5.60
2022-12-15T11:57:11.078Z,5.22
2022-12-15T11:59:58.501Z,5.53
2022-12-15T12:03:00.438Z,5.20
2022-12-15T12:05:39.392Z,5.30
2022-12-15T12:08:24.131Z,5.35
2022-12-15T12:11:01.674Z,5.25
2022-12-15T12:13:37.202Z,5.05
2022-12-15T12:16:21.110Z,5.38
2022-12-15T12:18:58.184Z,4.95
2022-12-15T12:21:31.361Z,4.82
2022-12-15T12:24:05.782Z,5.32
2022-12-15T12:26:40.595Z,5.00
2022-12-15T12:29:16.940Z,5.25
2022-12-15T12:32:02.187Z,5.32
2022-12-15T12:35:31.212Z,5.50
2022-12-15T12:37:47.071Z,5.20
2022-12-15T12:40:23.777Z,5.35
2022-12-15T12:42:56.232Z,5.75
2022-12-15T12:45:29.121Z,5.47
2022-12-15T12:48:02.942Z,5.25
2022-12-15T12:50:32.915Z,4.78
2022-12-15T12:53:04.716Z,4.55
2022-12-15T12:55:42.229Z,5.03
2022-12-15T12:58:33.057Z,4.90
2022-12-15T13:01:31.427Z,4.93
2022-12-15T13:04:12.298Z,4.95
2022-12-15T13:07:01.789Z,4.70
2022-12-15T13:09:41.220Z,5.00
2022-12-15T13:12:52.023Z,4.60
2022-12-15T13:15:36.604Z,5.25
2022-12-15T13:18:14.105Z,4.47
2022-12-15T13:20:44.087Z,4.85
2022-12-15T13:23:42.024Z,4.97
2022-12-15T13:26:16.496Z,4.35
2022-12-15T13:28:53.627Z,5.05
2022-12-15T13:31:32.045Z,4.35
2022-12-15T13:34:14.898Z,5.43
2022-12-15T13:36:55.389Z,5.30
2022-12-15T13:39:59.147Z,4.18
2022-12-15T13:42:38.833Z,4.57
2022-12-15T13:45:36.904Z,4.75
2022-12-15T13:48:20.057Z,5.25
2022-12-15T13:50:58.014Z,5.35
2022-12-15T13:53:29.560Z,5.15
2022-12-15T13:56:07.995Z,5.43
2022-12-15T13:58:43.593Z,6.13
2022-12-15T14:01:31.992Z,5.70
2022-12-15T14:04:07.523Z,5.30
2022-12-15T14:06:42.055Z,4.90
2022-12-15T14:09:19.706Z,5.03
2022-12-15T14:11:53.667Z,5.28
2022-12-15T14:14:28.043Z,5.15
2022-12-15T14:17:03.821Z,4.60
2022-12-15T14:19:42.617Z,4.60
2022-12-15T14:22:28.583Z,4.20
2022-12-15T14:25:04.139Z,5.10
2022-12-15T14:27:34.710Z,5.78
2022-12-15T14:30:19.811Z,4.53
2022-12-15T14:32:53.560Z,4.60
2022-12-15T14:35:31.581Z,4.90
2022-12-15T14:38:08.208Z,5.13
2022-12-15T14:40:40.398Z,4.43
2022-12-15T14:43:14.602Z,5.47
2022-12-15T14:45:43.333Z,6.82
2022-12-15T14:48:42.591Z,7.03
2022-12-15T14:51:14.755Z,6.72
2022-12-15T14:53:45.980Z,5.95
2022-12-15T14:56:30.101Z,6.70
2022-12-15T14:59:04.503Z,5.40
2022-12-15T15:01:40.453Z,5.15
2022-12-15T15:04:26.963Z,5.63
2022-12-15T15:06:57.536Z,5.75
2022-12-15T15:09:28.173Z,10.07
2022-12-15T15:12:01.783Z,7.50
2022-12-15T15:14:34.484Z,6.90
2022-12-15T15:17:12.340Z,6.63
2022-12-15T15:19:49.965Z,7.10
2022-12-15T15:22:32.765Z,6.78
2022-12-15T15:25:02.996Z,7.00
2022-12-15T15:27:41.256Z,8.07
2022-12-15T15:30:24.064Z,8.43
2022-12-15T15:32:55.766Z,11.40
2022-12-15T15:35:32.626Z,10.30
2022-12-15T15:38:06.297Z,13.07
2022-12-15T15:40:38.534Z,9.98
2022-12-15T15:43:12.832Z,9.32
2022-12-15T15:45:45.094Z,9.00
2022-12-15T15:48:20.663Z,9.02
2022-12-15T15:50:50.650Z,10.98
2022-12-15T15:53:22.828Z,11.45
2022-12-15T15:55:54.492Z,11.45
2022-12-15T15:58:23.435Z,11.63
2022-12-15T16:00:53.996Z,11.40
2022-12-15T16:03:22.967Z,11.00
2022-12-15T16:05:53.411Z,11.27
2022-12-15T16:08:28.479Z,11.43
2022-12-15T16:10:57.478Z,17.67
2022-12-15T16:13:26.601Z,11.38
2022-12-15T16:15:56.261Z,11.55
2022-12-15T16:18:25.049Z,14.70
2022-12-15T16:20:55.411Z,12.15
2022-12-15T16:23:28.027Z,11.30
2022-12-15T16:25:58.888Z,10.40
2022-12-15T16:28:29.751Z,10.13
2022-12-15T16:30:59.966Z,9.73
2022-12-15T16:33:29.009Z,10.30
2022-12-15T16:35:59.793Z,10.65
2022-12-15T16:38:31.614Z,9.43
2022-12-15T16:44:22.397Z,10.07
2022-12-15T16:46:51.588Z,10.77
2022-12-15T16:49:20.773Z,14.80
2022-12-15T16:51:54.262Z,14.80
2022-12-15T16:54:25.676Z,14.68
2022-12-15T16:56:55.190Z,14.60
2022-12-15T16:59:35.696Z,22.02
2022-12-15T17:02:28.367Z,20.17
2022-12-15T17:04:57.807Z,18.23
2022-12-15T17:07:29.829Z,14.98
2022-12-15T17:09:58.568Z,15.18
2022-12-15T17:12:27.333Z,16.45
2022-12-15T17:14:57.755Z,19.08
2022-12-15T17:17:28.539Z,14.75
2022-12-15T17:22:49.292Z,16.15
2022-12-15T17:25:37.535Z,12.93
2022-12-15T17:28:16.883Z,13.32
2022-12-15T17:30:45.889Z,12.50
2022-12-15T17:33:23.572Z,13.43
2022-12-15T17:35:54.445Z,13.25
2022-12-15T17:38:25.891Z,13.20
2022-12-15T17:40:55.249Z,14.15
2022-12-15T17:43:32.083Z,13.95
2022-12-15T17:46:05.290Z,13.07
2022-12-15T17:48:34.688Z,13.93
2022-12-15T17:51:04.063Z,15.07
2022-12-15T17:53:34.545Z,16.60
2022-12-15T17:56:03.806Z,16.17
2022-12-15T17:58:32.452Z,16.10
2022-12-15T18:01:02.242Z,16.02
2022-12-15T18:03:31.742Z,16.27
2022-12-15T18:06:02.245Z,18.38
2022-12-15T18:08:36.875Z,16.70
2022-12-15T18:11:08.093Z,18.23
2022-12-15T18:13:37.177Z,19.98
2022-12-15T18:16:12.192Z,22.10
2022-12-15T18:18:42.182Z,21.65
2022-12-15T18:21:15.898Z,19.27
2022-12-15T18:23:47.898Z,19.00
2022-12-15T18:26:17.476Z,19.90
2022-12-15T18:28:46.192Z,19.40
2022-12-15T18:31:21.471Z,24.52
2022-12-15T18:33:50.901Z,21.52
2022-12-15T18:36:21.861Z,21.08
2022-12-15T18:38:53.222Z,22.17
2022-12-15T18:41:25.395Z,28.38
2022-12-15T18:43:56.613Z,26.75
2022-12-15T18:46:25.669Z,21.27
2022-12-15T18:48:56.450Z,21.48
2022-12-15T18:51:25.022Z,137.85
2022-12-15T18:53:55.972Z,552.13
2022-12-15T18:56:25.661Z,329.40
2022-12-15T18:58:55.244Z,185.35
2022-12-15T19:01:23.960Z,120.07
2022-12-15T19:03:54.975Z,88.43
2022-12-15T19:06:35.234Z,58.85
2022-12-15T19:09:09.280Z,39.22
2022-12-15T19:11:38.099Z,39.03
2022-12-15T19:14:36.124Z,39.88
2022-12-15T19:17:24.720Z,32.00
2022-12-15T19:20:11.078Z,27.98
2022-12-15T19:22:41.017Z,23.75
2022-12-15T19:25:23.333Z,24.17
2022-12-15T19:27:59.247Z,26.67
2022-12-15T19:30:30.119Z,21.30
2022-12-15T19:32:58.887Z,20.63
2022-12-15T19:35:29.540Z,20.85
2022-12-15T19:38:00.811Z,22.08
2022-12-15T19:40:32.845Z,25.58
2022-12-15T19:43:01.970Z,20.10
2022-12-15T19:45:32.334Z,22.13
2022-12-15T19:48:01.650Z,28.65
2022-12-15T19:50:41.788Z,19.67
2022-12-15T19:53:17.627Z,22.50
2022-12-15T19:55:48.895Z,24.77
2022-12-15T19:58:28.640Z,27.27
2022-12-15T20:01:00.084Z,23.27
2022-12-15T20:03:30.492Z,19.33
2022-12-15T20:06:00.892Z,21.70
2022-12-15T20:08:34.992Z,17.75
2022-12-15T20:11:11.120Z,21.17
2022-12-15T20:13:39.819Z,25.08
2022-12-15T20:16:09.588Z,29.67
2022-12-15T20:18:38.290Z,23.67
2022-12-15T20:21:07.978Z,27.42
2022-12-15T20:23:49.959Z,21.63
2022-12-15T20:26:21.687Z,20.30
2022-12-15T20:28:50.508Z,19.35
2022-12-15T20:31:23.949Z,19.40
2022-12-15T20:33:53.980Z,14.25
2022-12-15T20:36:25.714Z,25.88
2022-12-15T20:38:55.532Z,26.95
2022-12-15T20:41:27.799Z,28.05
2022-12-15T20:43:58.076Z,17.30
2022-12-15T20:46:28.917Z,16.75
2022-12-15T20:48:58.007Z,16.48
2022-12-15T20:51:30.618Z,17.42
2022-12-15T20:54:02.511Z,16.42
2022-12-15T20:56:32.954Z,16.67
2022-12-15T20:59:01.261Z,18.48
2022-12-15T21:01:32.726Z,20.60
2022-12-15T21:04:03.742Z,20.25
2022-12-15T21:06:34.442Z,23.13
2022-12-15T21:09:05.066Z,22.23
2022-12-15T21:11:35.092Z,23.50
2022-12-15T21:14:05.189Z,19.67
2022-12-15T21:16:34.860Z,21.85
2022-12-15T21:19:20.181Z,21.25
2022-12-15T21:21:54.924Z,19.27
2022-12-15T21:24:26.343Z,21.45
2022-12-15T21:26:56.570Z,19.92
2022-12-15T21:29:26.923Z,20.02
2022-12-15T21:31:55.927Z,21.05
2022-12-15T21:34:25.342Z,17.83
2022-12-15T21:36:55.849Z,22.10
2022-12-15T21:39:29.787Z,19.85
2022-12-15T21:42:03.575Z,23.58
2022-12-15T21:44:32.103Z,22.05
2022-12-15T21:47:00.779Z,22.85
2022-12-15T21:49:29.322Z,25.77
2022-12-15T21:51:59.827Z,25.70
2022-12-15T21:54:32.551Z,26.65
2022-12-15T21:57:04.103Z,25.42
2022-12-15T21:59:42.313Z,26.25
2022-12-15T22:02:25.598Z,26.25
2022-12-15T22:07:43.062Z,29.35
2022-12-15T22:10:12.222Z,26.63
2022-12-15T22:12:45.731Z,24.63
2022-12-15T22:15:16.645Z,24.52
2022-12-15T22:17:45.642Z,21.63
2022-12-15T22:20:19.931Z,24.73
2022-12-15T22:22:49.302Z,24.00
2022-12-15T22:25:20.756Z,24.15
2022-12-15T22:27:51.741Z,22.02
2022-12-15T22:30:22.793Z,22.05
2022-12-15T22:32:51.583Z,21.73
2022-12-15T22:35:25.050Z,25.13
2022-12-15T22:37:56.250Z,24.23
2022-12-15T22:40:25.636Z,25.70
2022-12-15T22:42:59.674Z,26.70
2022-12-15T22:45:28.393Z,26.02
2022-12-15T22:47:56.769Z,27.10
2022-12-15T22:50:27.437Z,26.83
2022-12-15T22:52:56.158Z,24.42
2022-12-15T22:55:25.523Z,23.00
2022-12-15T22:58:00.961Z,26.23
2022-12-15T23:00:29.709Z,23.35
2022-12-15T23:03:00.531Z,27.20
2022-12-15T23:05:29.409Z,25.20
2022-12-15T23:08:00.512Z,23.23
2022-12-15T23:10:46.243Z,24.08
2022-12-15T23:13:16.294Z,24.80
2022-12-15T23:16:01.439Z,26.50
2022-12-15T23:18:30.015Z,25.73
2022-12-15T23:20:58.673Z,24.67
2022-12-15T23:23:28.526Z,24.35
2022-12-15T23:25:56.857Z,27.92
2022-12-15T23:28:27.757Z,29.15
2022-12-15T23:30:58.598Z,27.45
2022-12-15T23:33:29.707Z,25.35
2022-12-15T23:36:00.622Z,26.52
2022-12-15T23:38:30.032Z,26.77
2022-12-15T23:40:58.661Z,26.40
2022-12-15T23:43:32.249Z,27.08
2022-12-15T23:46:03.510Z,26.67
2022-12-15T23:48:35.073Z,25.90
2022-12-15T23:51:08.699Z,25.25
2022-12-15T23:53:41.193Z,23.73
2022-12-15T23:56:12.369Z,21.63
2022-12-15T23:58:43.850Z,21.67
